Crabb, Texas
Current Conditions -  °F | °C
As of 3:19 AM on Monday 22 Dec 2014 (Local Time) from KSGR Reporting Station
Haze Haze  
Wind Chill: 55°   Ceiling: 300
Heat Index: 55°   Visibility: 3mi
Dew Point: 54°   Wind: 3mph
Humidity: 96%   Direction: 150°SSE
Pressure: 29.8"   Gusts: NA
Location:  29.4892°N, 95.6914°W
Report Text: KSGR 220919Z AUTO 15003KT 3SM BR BKN003 BKN045 13/12 A2980 RMK AO2 T01280122
Loading
Personal Weather Stations






























Interactive Weather Map New forecast layout! Learn more

10-Day Weather Forecast

Advertisements
Track Severe Weather on mobile